sensor_id;sensor_type;location;lat;lon;timestamp;pressure;altitude;pressure_sealevel;temperature;humidity
39275;BME280;24980;48.874;2.332;2023-04-22T00:02:15;100194.02;;;24.95;34.89
39275;BME280;24980;48.874;2.332;2023-04-22T00:04:46;100194.25;;;24.96;34.93
39275;BME280;24980;48.874;2.332;2023-04-22T00:07:19;100191.69;;;24.97;34.96
39275;BME280;24980;48.874;2.332;2023-04-22T00:12:16;100193.88;;;24.99;35.04
39275;BME280;24980;48.874;2.332;2023-04-22T00:14:46;100196.63;;;25.01;35.07
39275;BME280;24980;48.874;2.332;2023-04-22T00:17:16;100204.45;;;25.02;35.10
39275;BME280;24980;48.874;2.332;2023-04-22T00:19:46;100205.94;;;25.04;35.14
39275;BME280;24980;48.874;2.332;2023-04-22T00:22:16;100208.07;;;25.05;35.16
39275;BME280;24980;48.874;2.332;2023-04-22T00:24:46;100199.39;;;25.06;35.16
39275;BME280;24980;48.874;2.332;2023-04-22T00:27:16;100199.41;;;25.08;35.15
39275;BME280;24980;48.874;2.332;2023-04-22T00:29:46;100191.30;;;25.10;35.14
39275;BME280;24980;48.874;2.332;2023-04-22T00:32:16;100197.12;;;25.11;35.14
39275;BME280;24980;48.874;2.332;2023-04-22T00:34:46;100197.41;;;25.11;35.13
39275;BME280;24980;48.874;2.332;2023-04-22T00:37:16;100201.16;;;25.14;35.12
39275;BME280;24980;48.874;2.332;2023-04-22T00:39:46;100198.73;;;25.15;35.11
39275;BME280;24980;48.874;2.332;2023-04-22T00:42:19;100193.21;;;25.15;35.11
39275;BME280;24980;48.874;2.332;2023-04-22T00:44:47;100195.84;;;25.15;35.11
39275;BME280;24980;48.874;2.332;2023-04-22T00:47:17;100201.09;;;25.15;35.11
39275;BME280;24980;48.874;2.332;2023-04-22T00:49:48;100206.27;;;25.15;35.12
39275;BME280;24980;48.874;2.332;2023-04-22T00:52:18;100200.14;;;25.16;35.14
39275;BME280;24980;48.874;2.332;2023-04-22T00:54:48;100194.63;;;25.16;35.14
39275;BME280;24980;48.874;2.332;2023-04-22T00:57:19;100187.00;;;25.16;35.15
39275;BME280;24980;48.874;2.332;2023-04-22T00:59:49;100182.44;;;25.15;35.16
39275;BME280;24980;48.874;2.332;2023-04-22T01:02:19;100178.49;;;25.17;35.17
39275;BME280;24980;48.874;2.332;2023-04-22T01:04:50;100168.99;;;25.17;35.17
39275;BME280;24980;48.874;2.332;2023-04-22T01:07:20;100166.90;;;25.18;35.18
39275;BME280;24980;48.874;2.332;2023-04-22T01:09:51;100161.53;;;25.18;35.21
39275;BME280;24980;48.874;2.332;2023-04-22T01:12:21;100159.58;;;25.19;35.23
39275;BME280;24980;48.874;2.332;2023-04-22T01:14:56;100154.12;;;25.20;35.26
39275;BME280;24980;48.874;2.332;2023-04-22T01:17:22;100147.70;;;25.21;35.32
39275;BME280;24980;48.874;2.332;2023-04-22T01:19:52;100150.78;;;25.23;35.36
39275;BME280;24980;48.874;2.332;2023-04-22T01:22:23;100143.47;;;25.23;35.38
39275;BME280;24980;48.874;2.332;2023-04-22T01:24:53;100142.89;;;25.23;35.40
39275;BME280;24980;48.874;2.332;2023-04-22T01:27:23;100134.34;;;25.22;35.40
39275;BME280;24980;48.874;2.332;2023-04-22T01:29:54;100133.58;;;25.23;35.40
39275;BME280;24980;48.874;2.332;2023-04-22T01:32:24;100124.91;;;25.23;35.41
39275;BME280;24980;48.874;2.332;2023-04-22T01:34:54;100127.28;;;25.23;35.41
39275;BME280;24980;48.874;2.332;2023-04-22T01:37:24;100129.98;;;25.24;35.41
39275;BME280;24980;48.874;2.332;2023-04-22T01:39:56;100128.16;;;25.24;35.40
39275;BME280;24980;48.874;2.332;2023-04-22T01:42:25;100123.75;;;25.24;35.40
39275;BME280;24980;48.874;2.332;2023-04-22T01:45:06;100121.78;;;25.25;35.40
39275;BME280;24980;48.874;2.332;2023-04-22T01:47:25;100129.58;;;25.25;35.42
39275;BME280;24980;48.874;2.332;2023-04-22T01:49:55;100118.31;;;25.24;35.40
39275;BME280;24980;48.874;2.332;2023-04-22T01:52:26;100108.19;;;25.23;35.43
39275;BME280;24980;48.874;2.332;2023-04-22T01:54:57;100108.36;;;25.23;35.44
39275;BME280;24980;48.874;2.332;2023-04-22T01:57:26;100111.41;;;25.23;35.46
39275;BME280;24980;48.874;2.332;2023-04-22T01:59:56;100103.31;;;25.22;35.47
39275;BME280;24980;48.874;2.332;2023-04-22T02:02:26;100081.20;;;25.21;35.49
39275;BME280;24980;48.874;2.332;2023-04-22T02:04:56;100078.67;;;25.21;35.51
39275;BME280;24980;48.874;2.332;2023-04-22T02:07:26;100077.78;;;25.20;35.54
39275;BME280;24980;48.874;2.332;2023-04-22T02:09:56;100071.69;;;25.22;35.54
39275;BME280;24980;48.874;2.332;2023-04-22T02:12:26;100063.89;;;25.22;35.54
39275;BME280;24980;48.874;2.332;2023-04-22T02:14:56;100067.52;;;25.22;35.55
39275;BME280;24980;48.874;2.332;2023-04-22T02:17:27;100074.62;;;25.23;35.58
39275;BME280;24980;48.874;2.332;2023-04-22T02:19:57;100083.33;;;25.24;35.60
39275;BME280;24980;48.874;2.332;2023-04-22T02:22:27;100086.39;;;25.24;35.61
39275;BME280;24980;48.874;2.332;2023-04-22T02:24:57;100080.45;;;25.23;35.63
39275;BME280;24980;48.874;2.332;2023-04-22T02:27:27;100078.34;;;25.23;35.64
39275;BME280;24980;48.874;2.332;2023-04-22T02:29:57;100073.79;;;25.24;35.65
39275;BME280;24980;48.874;2.332;2023-04-22T02:32:27;100078.69;;;25.25;35.69
39275;BME280;24980;48.874;2.332;2023-04-22T02:34:57;100077.44;;;25.24;35.72
39275;BME280;24980;48.874;2.332;2023-04-22T02:37:27;100079.97;;;25.24;35.73
39275;BME280;24980;48.874;2.332;2023-04-22T02:39:57;100076.27;;;25.26;35.75
39275;BME280;24980;48.874;2.332;2023-04-22T02:42:28;100080.87;;;25.27;35.75
39275;BME280;24980;48.874;2.332;2023-04-22T02:44:58;100084.83;;;25.28;35.75
39275;BME280;24980;48.874;2.332;2023-04-22T02:47:31;100081.47;;;25.30;35.76
39275;BME280;24980;48.874;2.332;2023-04-22T02:49:58;100080.16;;;25.30;35.77
39275;BME280;24980;48.874;2.332;2023-04-22T02:52:28;100070.38;;;25.31;35.77
39275;BME280;24980;48.874;2.332;2023-04-22T02:54:59;100073.34;;;25.31;35.79
39275;BME280;24980;48.874;2.332;2023-04-22T02:57:29;100070.72;;;25.31;35.82
39275;BME280;24980;48.874;2.332;2023-04-22T02:59:59;100073.06;;;25.32;35.83
39275;BME280;24980;48.874;2.332;2023-04-22T03:02:29;100073.89;;;25.33;35.84
39275;BME280;24980;48.874;2.332;2023-04-22T03:05:00;100068.75;;;25.33;35.84
39275;BME280;24980;48.874;2.332;2023-04-22T03:07:30;100055.48;;;25.34;35.84
39275;BME280;24980;48.874;2.332;2023-04-22T03:10:00;100051.38;;;25.35;35.85
39275;BME280;24980;48.874;2.332;2023-04-22T03:12:30;100039.16;;;25.36;35.87
39275;BME280;24980;48.874;2.332;2023-04-22T03:15:00;100034.89;;;25.36;35.87
39275;BME280;24980;48.874;2.332;2023-04-22T03:17:30;100031.89;;;25.37;35.91
39275;BME280;24980;48.874;2.332;2023-04-22T03:20:00;100031.42;;;25.38;35.96
39275;BME280;24980;48.874;2.332;2023-04-22T03:22:30;100022.55;;;25.39;36.02
39275;BME280;24980;48.874;2.332;2023-04-22T03:25:00;100019.25;;;25.39;36.08
39275;BME280;24980;48.874;2.332;2023-04-22T03:27:30;100014.42;;;25.41;36.14
39275;BME280;24980;48.874;2.332;2023-04-22T03:30:00;100008.69;;;25.42;36.19
39275;BME280;24980;48.874;2.332;2023-04-22T03:32:30;100001.50;;;25.42;36.23
39275;BME280;24980;48.874;2.332;2023-04-22T03:35:01;99998.24;;;25.43;36.27
39275;BME280;24980;48.874;2.332;2023-04-22T03:37:31;100002.22;;;25.45;36.26
39275;BME280;24980;48.874;2.332;2023-04-22T03:40:03;100006.86;;;25.46;36.25
39275;BME280;24980;48.874;2.332;2023-04-22T03:42:32;100005.92;;;25.46;36.24
39275;BME280;24980;48.874;2.332;2023-04-22T03:45:02;100012.80;;;25.46;36.22
39275;BME280;24980;48.874;2.332;2023-04-22T03:47:32;100015.84;;;25.46;36.20
39275;BME280;24980;48.874;2.332;2023-04-22T03:50:17;100017.08;;;25.46;36.21
39275;BME280;24980;48.874;2.332;2023-04-22T03:52:33;100016.72;;;25.45;36.21
39275;BME280;24980;48.874;2.332;2023-04-22T03:55:03;100009.95;;;25.44;36.21
39275;BME280;24980;48.874;2.332;2023-04-22T03:57:33;100004.30;;;25.43;36.21
39275;BME280;24980;48.874;2.332;2023-04-22T04:00:04;99993.77;;;25.42;36.23
39275;BME280;24980;48.874;2.332;2023-04-22T04:02:35;99990.36;;;25.42;36.24
39275;BME280;24980;48.874;2.332;2023-04-22T04:05:05;99982.66;;;25.42;36.24
39275;BME280;24980;48.874;2.332;2023-04-22T04:07:35;99977.47;;;25.42;36.23
39275;BME280;24980;48.874;2.332;2023-04-22T04:10:07;99983.67;;;25.42;36.24
39275;BME280;24980;48.874;2.332;2023-04-22T04:12:36;100008.44;;;25.42;36.24
39275;BME280;24980;48.874;2.332;2023-04-22T04:15:06;100010.56;;;25.42;36.24
39275;BME280;24980;48.874;2.332;2023-04-22T04:17:36;99998.42;;;25.42;36.25
39275;BME280;24980;48.874;2.332;2023-04-22T04:20:07;99978.95;;;25.43;36.25
39275;BME280;24980;48.874;2.332;2023-04-22T04:22:37;99964.09;;;25.43;36.26
39275;BME280;24980;48.874;2.332;2023-04-22T04:25:07;99936.41;;;25.42;36.28
39275;BME280;24980;48.874;2.332;2023-04-22T04:27:37;99914.98;;;25.41;36.30
39275;BME280;24980;48.874;2.332;2023-04-22T04:30:08;99912.30;;;25.40;36.31
39275;BME280;24980;48.874;2.332;2023-04-22T04:32:41;99922.48;;;25.40;36.34
39275;BME280;24980;48.874;2.332;2023-04-22T04:35:09;99933.60;;;25.40;36.37
39275;BME280;24980;48.874;2.332;2023-04-22T04:37:42;99946.89;;;25.41;36.40
39275;BME280;24980;48.874;2.332;2023-04-22T04:40:10;99967.18;;;25.40;36.41
39275;BME280;24980;48.874;2.332;2023-04-22T04:42:40;99983.36;;;25.41;36.41
39275;BME280;24980;48.874;2.332;2023-04-22T04:45:10;99977.41;;;25.42;36.41
39275;BME280;24980;48.874;2.332;2023-04-22T04:47:40;99949.75;;;25.42;36.41
39275;BME280;24980;48.874;2.332;2023-04-22T04:50:10;99942.28;;;25.42;36.42
39275;BME280;24980;48.874;2.332;2023-04-22T04:52:47;99926.46;;;25.40;36.43
39275;BME280;24980;48.874;2.332;2023-04-22T04:55:14;99937.58;;;25.40;36.53
39275;BME280;24980;48.874;2.332;2023-04-22T04:57:43;99948.58;;;25.41;36.58
39275;BME280;24980;48.874;2.332;2023-04-22T05:00:14;99925.22;;;25.42;36.64
39275;BME280;24980;48.874;2.332;2023-04-22T05:02:45;99909.45;;;25.43;36.70
39275;BME280;24980;48.874;2.332;2023-04-22T05:05:12;99909.12;;;25.43;36.73
39275;BME280;24980;48.874;2.332;2023-04-22T05:07:42;99897.20;;;25.44;36.74
39275;BME280;24980;48.874;2.332;2023-04-22T05:10:13;99903.22;;;25.44;36.74
39275;BME280;24980;48.874;2.332;2023-04-22T05:12:43;99903.22;;;25.46;36.76
39275;BME280;24980;48.874;2.332;2023-04-22T05:15:14;99904.05;;;25.47;36.76
39275;BME280;24980;48.874;2.332;2023-04-22T05:17:44;99912.08;;;25.48;36.75
39275;BME280;24980;48.874;2.332;2023-04-22T05:20:14;99933.62;;;25.48;36.76
39275;BME280;24980;48.874;2.332;2023-04-22T05:22:51;99955.39;;;25.49;36.77
39275;BME280;24980;48.874;2.332;2023-04-22T05:25:19;99951.83;;;25.49;36.77
39275;BME280;24980;48.874;2.332;2023-04-22T05:27:44;99963.88;;;25.52;36.77
39275;BME280;24980;48.874;2.332;2023-04-22T05:30:17;99957.80;;;25.55;36.79
39275;BME280;24980;48.874;2.332;2023-04-22T05:32:45;99945.73;;;25.57;36.80
39275;BME280;24980;48.874;2.332;2023-04-22T05:35:15;99940.11;;;25.59;36.81
39275;BME280;24980;48.874;2.332;2023-04-22T05:37:45;99944.97;;;25.61;36.81
39275;BME280;24980;48.874;2.332;2023-04-22T05:40:16;99979.27;;;25.62;36.82
39275;BME280;24980;48.874;2.332;2023-04-22T05:42:45;99995.59;;;25.64;36.82
39275;BME280;24980;48.874;2.332;2023-04-22T05:45:15;100016.60;;;25.65;36.83
39275;BME280;24980;48.874;2.332;2023-04-22T05:47:45;100031.81;;;25.66;36.85
39275;BME280;24980;48.874;2.332;2023-04-22T05:50:15;100023.11;;;25.68;36.84
39275;BME280;24980;48.874;2.332;2023-04-22T05:52:48;100007.33;;;25.69;36.85
39275;BME280;24980;48.874;2.332;2023-04-22T05:55:16;100003.12;;;25.71;36.86
39275;BME280;24980;48.874;2.332;2023-04-22T05:57:46;99976.70;;;25.73;36.85
39275;BME280;24980;48.874;2.332;2023-04-22T06:00:17;99959.53;;;25.74;36.86
39275;BME280;24980;48.874;2.332;2023-04-22T06:02:47;99967.48;;;25.74;36.87
39275;BME280;24980;48.874;2.332;2023-04-22T06:05:18;99970.98;;;25.75;36.90
39275;BME280;24980;48.874;2.332;2023-04-22T06:07:48;99983.72;;;25.75;36.95
39275;BME280;24980;48.874;2.332;2023-04-22T06:10:18;99992.59;;;25.75;36.97
39275;BME280;24980;48.874;2.332;2023-04-22T06:12:48;100002.60;;;25.73;37.02
39275;BME280;24980;48.874;2.332;2023-04-22T06:15:18;99995.66;;;25.75;37.01
39275;BME280;24980;48.874;2.332;2023-04-22T06:17:48;99983.03;;;25.76;37.00
39275;BME280;24980;48.874;2.332;2023-04-22T06:20:21;99986.28;;;25.78;36.99
39275;BME280;24980;48.874;2.332;2023-04-22T06:22:48;99982.86;;;25.80;36.96
39275;BME280;24980;48.874;2.332;2023-04-22T06:25:18;99978.70;;;25.80;36.96
39275;BME280;24980;48.874;2.332;2023-04-22T06:27:48;99986.58;;;25.80;36.97
39275;BME280;24980;48.874;2.332;2023-04-22T06:30:18;99987.39;;;25.81;36.97
39275;BME280;24980;48.874;2.332;2023-04-22T06:32:49;99994.64;;;25.82;36.99
39275;BME280;24980;48.874;2.332;2023-04-22T06:35:19;99999.20;;;25.83;37.00
39275;BME280;24980;48.874;2.332;2023-04-22T06:37:49;100005.11;;;25.84;37.03
39275;BME280;24980;48.874;2.332;2023-04-22T06:40:20;100003.48;;;25.86;37.05
39275;BME280;24980;48.874;2.332;2023-04-22T06:42:50;99997.77;;;25.87;37.11
39275;BME280;24980;48.874;2.332;2023-04-22T06:45:20;99994.61;;;25.89;37.15
39275;BME280;24980;48.874;2.332;2023-04-22T06:47:52;99997.67;;;25.91;37.17
39275;BME280;24980;48.874;2.332;2023-04-22T06:50:20;99997.86;;;25.92;37.16
39275;BME280;24980;48.874;2.332;2023-04-22T06:52:50;99995.77;;;25.94;37.16
39275;BME280;24980;48.874;2.332;2023-04-22T06:55:20;99993.38;;;25.94;37.16
39275;BME280;24980;48.874;2.332;2023-04-22T06:57:50;99991.38;;;25.94;37.17
39275;BME280;24980;48.874;2.332;2023-04-22T07:00:26;99985.80;;;25.96;37.15
39275;BME280;24980;48.874;2.332;2023-04-22T07:02:57;99983.81;;;25.99;37.12
39275;BME280;24980;48.874;2.332;2023-04-22T07:05:22;99980.20;;;26.00;37.09
39275;BME280;24980;48.874;2.332;2023-04-22T07:07:52;99985.46;;;26.00;37.09
39275;BME280;24980;48.874;2.332;2023-04-22T07:10:24;99979.17;;;26.00;37.08
39275;BME280;24980;48.874;2.332;2023-04-22T07:12:53;99964.72;;;25.99;37.09
39275;BME280;24980;48.874;2.332;2023-04-22T07:15:23;99965.94;;;25.96;37.11
39275;BME280;24980;48.874;2.332;2023-04-22T07:17:55;99976.57;;;25.95;37.12
39275;BME280;24980;48.874;2.332;2023-04-22T07:20:23;99974.72;;;25.95;37.14
39275;BME280;24980;48.874;2.332;2023-04-22T07:22:54;99975.16;;;25.95;37.15
39275;BME280;24980;48.874;2.332;2023-04-22T07:25:24;99974.21;;;25.95;37.18
39275;BME280;24980;48.874;2.332;2023-04-22T07:27:54;99978.99;;;25.97;37.21
39275;BME280;24980;48.874;2.332;2023-04-22T07:30:24;99981.64;;;25.98;37.23
39275;BME280;24980;48.874;2.332;2023-04-22T07:32:54;99985.42;;;25.99;37.23
39275;BME280;24980;48.874;2.332;2023-04-22T07:35:25;99983.05;;;25.99;37.26
39275;BME280;24980;48.874;2.332;2023-04-22T07:38:01;99977.64;;;25.98;37.27
39275;BME280;24980;48.874;2.332;2023-04-22T07:40:35;99975.22;;;25.95;37.31
39275;BME280;24980;48.874;2.332;2023-04-22T07:42:57;99981.98;;;25.96;37.32
39275;BME280;24980;48.874;2.332;2023-04-22T07:45:27;99983.25;;;25.96;37.34
39275;BME280;24980;48.874;2.332;2023-04-22T07:47:57;99976.95;;;25.97;37.36
39275;BME280;24980;48.874;2.332;2023-04-22T07:50:27;99974.56;;;25.94;37.40
39275;BME280;24980;48.874;2.332;2023-04-22T07:52:57;99969.47;;;25.94;37.42
39275;BME280;24980;48.874;2.332;2023-04-22T07:55:27;99969.88;;;25.95;37.43
39275;BME280;24980;48.874;2.332;2023-04-22T07:57:57;99964.00;;;25.95;37.44
39275;BME280;24980;48.874;2.332;2023-04-22T08:00:27;99976.03;;;25.97;37.44
39275;BME280;24980;48.874;2.332;2023-04-22T08:02:57;99971.70;;;25.96;37.45
39275;BME280;24980;48.874;2.332;2023-04-22T08:05:27;99967.10;;;25.97;37.46
39275;BME280;24980;48.874;2.332;2023-04-22T08:07:58;99969.41;;;25.98;37.46
39275;BME280;24980;48.874;2.332;2023-04-22T08:10:28;99965.16;;;25.97;37.47
39275;BME280;24980;48.874;2.332;2023-04-22T08:13:03;99969.25;;;25.96;37.49
39275;BME280;24980;48.874;2.332;2023-04-22T08:15:29;99971.59;;;25.95;37.50
39275;BME280;24980;48.874;2.332;2023-04-22T08:17:59;99970.73;;;25.93;37.52
39275;BME280;24980;48.874;2.332;2023-04-22T08:20:29;99972.69;;;25.93;37.53
39275;BME280;24980;48.874;2.332;2023-04-22T08:22:59;99978.43;;;25.94;37.53
39275;BME280;24980;48.874;2.332;2023-04-22T08:25:29;99982.50;;;25.94;37.55
39275;BME280;24980;48.874;2.332;2023-04-22T08:27:59;99985.93;;;25.95;37.56
39275;BME280;24980;48.874;2.332;2023-04-22T08:30:29;99987.76;;;25.88;37.59
39275;BME280;24980;48.874;2.332;2023-04-22T08:32:59;99995.17;;;25.91;37.55
39275;BME280;24980;48.874;2.332;2023-04-22T08:35:29;99987.63;;;25.97;37.52
39275;BME280;24980;48.874;2.332;2023-04-22T08:37:59;99989.62;;;26.08;37.50
39275;BME280;24980;48.874;2.332;2023-04-22T08:40:29;99985.30;;;26.07;37.55
39275;BME280;24980;48.874;2.332;2023-04-22T08:43:05;99978.40;;;26.06;37.64
39275;BME280;24980;48.874;2.332;2023-04-22T08:45:30;99985.02;;;26.08;37.71
39275;BME280;24980;48.874;2.332;2023-04-22T08:48:01;99986.56;;;26.12;37.75
39275;BME280;24980;48.874;2.332;2023-04-22T08:50:31;99985.98;;;26.15;37.79
39275;BME280;24980;48.874;2.332;2023-04-22T08:53:02;99988.53;;;26.16;37.84
39275;BME280;24980;48.874;2.332;2023-04-22T08:55:33;99992.25;;;26.15;37.90
39275;BME280;24980;48.874;2.332;2023-04-22T08:58:03;99991.52;;;26.15;37.95
39275;BME280;24980;48.874;2.332;2023-04-22T09:00:33;99991.45;;;26.13;37.98
39275;BME280;24980;48.874;2.332;2023-04-22T09:03:05;100002.64;;;26.11;38.01
39275;BME280;24980;48.874;2.332;2023-04-22T09:05:36;99998.89;;;26.10;38.04
39275;BME280;24980;48.874;2.332;2023-04-22T09:08:04;99997.31;;;26.07;38.06
39275;BME280;24980;48.874;2.332;2023-04-22T09:10:37;100001.17;;;26.06;38.10
39275;BME280;24980;48.874;2.332;2023-04-22T09:13:09;100003.60;;;26.04;38.13
39275;BME280;24980;48.874;2.332;2023-04-22T09:15:36;100011.77;;;26.03;38.16
39275;BME280;24980;48.874;2.332;2023-04-22T09:18:08;100010.55;;;26.01;38.19
39275;BME280;24980;48.874;2.332;2023-04-22T09:20:41;100006.27;;;26.00;38.22
39275;BME280;24980;48.874;2.332;2023-04-22T09:23:07;100007.56;;;26.00;38.25
39275;BME280;24980;48.874;2.332;2023-04-22T09:25:37;100004.31;;;26.00;38.28
39275;BME280;24980;48.874;2.332;2023-04-22T09:28:10;100010.12;;;25.99;38.31
39275;BME280;24980;48.874;2.332;2023-04-22T09:30:38;100013.78;;;25.99;38.34
39275;BME280;24980;48.874;2.332;2023-04-22T09:33:08;100013.62;;;25.99;38.36
39275;BME280;24980;48.874;2.332;2023-04-22T09:35:39;100015.31;;;25.97;38.38
39275;BME280;24980;48.874;2.332;2023-04-22T09:38:10;100021.65;;;25.96;38.42
39275;BME280;24980;48.874;2.332;2023-04-22T09:40:45;100033.45;;;25.94;38.46
39275;BME280;24980;48.874;2.332;2023-04-22T09:43:10;100036.88;;;25.93;38.52
39275;BME280;24980;48.874;2.332;2023-04-22T09:45:51;100041.00;;;25.92;38.58
39275;BME280;24980;48.874;2.332;2023-04-22T09:48:16;100045.14;;;25.91;38.64
39275;BME280;24980;48.874;2.332;2023-04-22T09:50:44;100047.66;;;25.89;38.66
39275;BME280;24980;48.874;2.332;2023-04-22T09:53:15;100047.66;;;25.88;38.67
39275;BME280;24980;48.874;2.332;2023-04-22T09:55:45;100057.29;;;25.86;38.67
39275;BME280;24980;48.874;2.332;2023-04-22T09:58:17;100066.46;;;25.85;38.68
39275;BME280;24980;48.874;2.332;2023-04-22T10:00:47;100072.28;;;25.83;38.68
39275;BME280;24980;48.874;2.332;2023-04-22T10:03:19;100073.94;;;25.82;38.68
39275;BME280;24980;48.874;2.332;2023-04-22T10:05:44;100079.02;;;25.81;38.67
39275;BME280;24980;48.874;2.332;2023-04-22T10:08:15;100077.80;;;25.79;38.70
39275;BME280;24980;48.874;2.332;2023-04-22T10:10:44;100078.93;;;25.76;38.71
39275;BME280;24980;48.874;2.332;2023-04-22T10:13:15;100080.05;;;25.74;38.72
39275;BME280;24980;48.874;2.332;2023-04-22T10:15:54;100080.94;;;25.73;38.73
39275;BME280;24980;48.874;2.332;2023-04-22T10:18:22;100081.27;;;25.72;38.72
39275;BME280;24980;48.874;2.332;2023-04-22T10:20:47;100078.70;;;25.69;38.73
39275;BME280;24980;48.874;2.332;2023-04-22T10:23:22;100086.91;;;25.68;38.74
39275;BME280;24980;48.874;2.332;2023-04-22T10:25:49;100085.30;;;25.66;38.76
39275;BME280;24980;48.874;2.332;2023-04-22T10:28:20;100092.67;;;25.64;38.76
39275;BME280;24980;48.874;2.332;2023-04-22T10:30:49;100095.53;;;25.62;38.78
39275;BME280;24980;48.874;2.332;2023-04-22T10:36:16;100102.70;;;25.59;38.80
39275;BME280;24980;48.874;2.332;2023-04-22T10:38:20;100104.17;;;25.56;38.81
39275;BME280;24980;48.874;2.332;2023-04-22T10:41:00;100106.20;;;25.55;38.81
39275;BME280;24980;48.874;2.332;2023-04-22T10:50:53;100114.36;;;25.50;38.83
39275;BME280;24980;48.874;2.332;2023-04-22T10:53:36;100122.09;;;25.50;38.85
39275;BME280;24980;48.874;2.332;2023-04-22T10:55:54;100125.39;;;25.47;38.85
39275;BME280;24980;48.874;2.332;2023-04-22T10:58:24;100134.79;;;25.46;38.86
39275;BME280;24980;48.874;2.332;2023-04-22T11:00:54;100135.59;;;25.45;38.88
39275;BME280;24980;48.874;2.332;2023-04-22T11:03:26;100134.88;;;25.43;38.88
39275;BME280;24980;48.874;2.332;2023-04-22T11:06:17;100138.35;;;25.41;38.90
39275;BME280;24980;48.874;2.332;2023-04-22T11:08:27;100151.12;;;25.40;38.90
39275;BME280;24980;48.874;2.332;2023-04-22T11:11:06;100158.06;;;25.39;38.92
39275;BME280;24980;48.874;2.332;2023-04-22T11:13:28;100161.50;;;25.37;38.94
39275;BME280;24980;48.874;2.332;2023-04-22T11:18:27;100168.03;;;25.35;38.97
39275;BME280;24980;48.874;2.332;2023-04-22T11:21:02;100167.05;;;25.34;38.99
39275;BME280;24980;48.874;2.332;2023-04-22T11:23:29;100175.12;;;25.33;39.01
39275;BME280;24980;48.874;2.332;2023-04-22T11:26:02;100174.95;;;25.33;39.02
39275;BME280;24980;48.874;2.332;2023-04-22T11:28:30;100177.90;;;25.32;39.03
39275;BME280;24980;48.874;2.332;2023-04-22T11:31:05;100180.98;;;25.31;39.05
39275;BME280;24980;48.874;2.332;2023-04-22T11:33:31;100183.95;;;25.31;39.06
39275;BME280;24980;48.874;2.332;2023-04-22T11:36:01;100191.70;;;25.30;39.08
39275;BME280;24980;48.874;2.332;2023-04-22T11:38:31;100196.19;;;25.29;39.11
39275;BME280;24980;48.874;2.332;2023-04-22T11:41:01;100201.56;;;25.28;39.13
39275;BME280;24980;48.874;2.332;2023-04-22T11:43:32;100200.94;;;25.27;39.14
39275;BME280;24980;48.874;2.332;2023-04-22T11:46:09;100203.34;;;25.26;39.16
39275;BME280;24980;48.874;2.332;2023-04-22T11:48:33;100206.95;;;25.24;39.17
39275;BME280;24980;48.874;2.332;2023-04-22T11:51:08;100204.38;;;25.23;39.19
39275;BME280;24980;48.874;2.332;2023-04-22T11:53:34;100207.36;;;25.23;39.21
39275;BME280;24980;48.874;2.332;2023-04-22T11:56:05;100212.73;;;25.21;39.23
39275;BME280;24980;48.874;2.332;2023-04-22T11:58:38;100215.00;;;25.20;39.26
39275;BME280;24980;48.874;2.332;2023-04-22T12:01:05;100219.03;;;25.18;39.28
39275;BME280;24980;48.874;2.332;2023-04-22T12:03:35;100228.03;;;25.16;39.29
39275;BME280;24980;48.874;2.332;2023-04-22T12:06:06;100229.14;;;25.16;39.32
39275;BME280;24980;48.874;2.332;2023-04-22T12:08:38;100229.19;;;25.14;39.35
39275;BME280;24980;48.874;2.332;2023-04-22T12:11:08;100229.07;;;25.13;39.40
39275;BME280;24980;48.874;2.332;2023-04-22T12:13:42;100232.40;;;25.13;39.42
39275;BME280;24980;48.874;2.332;2023-04-22T12:16:16;100238.34;;;25.12;39.44
39275;BME280;24980;48.874;2.332;2023-04-22T12:18:50;100240.16;;;25.11;39.45
39275;BME280;24980;48.874;2.332;2023-04-22T12:21:12;100252.59;;;25.10;39.46
39275;BME280;24980;48.874;2.332;2023-04-22T12:23:47;100256.11;;;25.09;39.46
39275;BME280;24980;48.874;2.332;2023-04-22T12:26:09;100260.50;;;25.07;39.47
39275;BME280;24980;48.874;2.332;2023-04-22T12:28:39;100259.10;;;25.06;39.49
39275;BME280;24980;48.874;2.332;2023-04-22T12:31:10;100257.34;;;25.05;39.49
39275;BME280;24980;48.874;2.332;2023-04-22T12:33:42;100254.19;;;25.03;39.50
39275;BME280;24980;48.874;2.332;2023-04-22T12:36:10;100253.55;;;25.02;39.52
39275;BME280;24980;48.874;2.332;2023-04-22T12:38:41;100257.35;;;25.00;39.53
39275;BME280;24980;48.874;2.332;2023-04-22T12:41:11;100255.34;;;24.99;39.54
39275;BME280;24980;48.874;2.332;2023-04-22T12:43:41;100256.11;;;24.97;39.55
39275;BME280;24980;48.874;2.332;2023-04-22T12:46:12;100258.18;;;24.96;39.56
39275;BME280;24980;48.874;2.332;2023-04-22T12:48:42;100265.62;;;24.95;39.57
39275;BME280;24980;48.874;2.332;2023-04-22T12:51:12;100269.65;;;24.93;39.59
39275;BME280;24980;48.874;2.332;2023-04-22T12:53:43;100275.73;;;24.92;39.63
39275;BME280;24980;48.874;2.332;2023-04-22T12:56:13;100276.44;;;24.90;39.65
39275;BME280;24980;48.874;2.332;2023-04-22T12:58:44;100276.62;;;24.89;39.68
39275;BME280;24980;48.874;2.332;2023-04-22T13:01:14;100276.11;;;24.88;39.71
39275;BME280;24980;48.874;2.332;2023-04-22T13:03:44;100275.12;;;24.87;39.75
39275;BME280;24980;48.874;2.332;2023-04-22T13:06:14;100274.88;;;24.86;39.77
39275;BME280;24980;48.874;2.332;2023-04-22T13:08:44;100283.53;;;24.86;39.80
39275;BME280;24980;48.874;2.332;2023-04-22T13:11:15;100286.52;;;24.85;39.84
39275;BME280;24980;48.874;2.332;2023-04-22T13:13:46;100283.67;;;24.85;39.87
39275;BME280;24980;48.874;2.332;2023-04-22T13:16:15;100279.09;;;24.85;39.90
39275;BME280;24980;48.874;2.332;2023-04-22T13:18:52;100276.93;;;24.85;39.96
39275;BME280;24980;48.874;2.332;2023-04-22T13:21:16;100282.94;;;24.86;40.02
39275;BME280;24980;48.874;2.332;2023-04-22T13:23:47;100286.16;;;24.86;40.06